createdAt,value
2023-04-21T00:00:35.310Z,20.13
2023-04-21T00:03:03.490Z,22.90
2023-04-21T00:05:31.776Z,19.17
2023-04-21T00:08:03.086Z,20.10
2023-04-21T00:10:31.293Z,19.97
2023-04-21T00:12:59.070Z,22.07
2023-04-21T00:15:28.148Z,23.87
2023-04-21T00:17:56.461Z,22.10
2023-04-21T00:20:25.004Z,24.23
2023-04-21T00:22:52.967Z,20.70
2023-04-21T00:25:22.733Z,23.67
2023-04-21T00:27:51.146Z,20.47
2023-04-21T00:30:19.536Z,21.57
2023-04-21T00:32:47.659Z,23.13
2023-04-21T00:35:15.622Z,24.83
2023-04-21T00:37:43.410Z,23.83
2023-04-21T00:40:11.883Z,21.37
2023-04-21T00:42:41.218Z,26.13
2023-04-21T00:45:09.947Z,25.83
2023-04-21T00:47:39.159Z,21.10
2023-04-21T00:50:07.703Z,23.60
2023-04-21T00:52:41.058Z,21.23
2023-04-21T00:55:10.284Z,24.57
2023-04-21T00:57:43.116Z,26.20
2023-04-21T01:00:13.568Z,21.67
2023-04-21T01:02:41.988Z,23.30
2023-04-21T01:05:11.282Z,22.93
2023-04-21T01:07:39.438Z,23.97
2023-04-21T01:10:09.092Z,24.87
2023-04-21T01:12:46.234Z,24.90
2023-04-21T01:15:15.037Z,23.27
2023-04-21T01:17:46.073Z,22.00
2023-04-21T01:20:17.964Z,21.20
2023-04-21T01:22:47.138Z,23.57
2023-04-21T01:25:15.280Z,23.47
2023-04-21T01:27:42.965Z,22.20
2023-04-21T01:30:11.380Z,21.30
2023-04-21T01:32:39.185Z,22.50
2023-04-21T01:35:07.860Z,23.70
2023-04-21T01:37:35.917Z,26.27
2023-04-21T01:40:08.695Z,23.27
2023-04-21T01:42:37.882Z,24.77
2023-04-21T01:45:06.924Z,22.83
2023-04-21T01:47:36.007Z,21.67
2023-04-21T01:50:04.439Z,22.90
2023-04-21T01:52:32.097Z,25.47
2023-04-21T01:54:59.810Z,23.60
2023-04-21T01:57:29.289Z,22.97
2023-04-21T01:59:57.510Z,24.73
2023-04-21T02:02:25.749Z,21.10
2023-04-21T02:04:53.686Z,24.03
2023-04-21T02:07:21.395Z,24.43
2023-04-21T02:09:49.472Z,24.97
2023-04-21T02:12:18.125Z,23.03
2023-04-21T02:14:48.100Z,21.37
2023-04-21T02:17:16.684Z,25.40
2023-04-21T02:19:44.411Z,24.90
2023-04-21T02:22:12.921Z,25.73
2023-04-21T02:24:41.712Z,26.27
2023-04-21T02:27:09.426Z,23.03
2023-04-21T02:29:37.153Z,24.63
2023-04-21T02:34:38.432Z,24.47
2023-04-21T02:37:06.521Z,25.33
2023-04-21T02:39:35.522Z,24.23
2023-04-21T02:42:03.325Z,28.43
2023-04-21T02:44:31.124Z,25.17
2023-04-21T02:46:58.899Z,27.73
2023-04-21T02:49:28.026Z,24.40
2023-04-21T02:51:56.172Z,25.83
2023-04-21T02:54:23.876Z,27.80
2023-04-21T02:56:51.548Z,24.83
2023-04-21T02:59:19.632Z,25.17
2023-04-21T03:01:49.221Z,25.40
2023-04-21T03:04:19.772Z,27.17
2023-04-21T03:06:49.045Z,25.50
2023-04-21T03:09:16.829Z,24.33
2023-04-21T03:11:45.426Z,27.30
2023-04-21T03:14:13.135Z,24.90
2023-04-21T03:16:40.885Z,24.77
2023-04-21T03:19:08.874Z,24.50
2023-04-21T03:21:40.216Z,26.70
2023-04-21T03:24:10.037Z,25.07
2023-04-21T03:26:41.653Z,26.27
2023-04-21T03:29:09.415Z,26.73
2023-04-21T03:31:41.056Z,26.43
2023-04-21T03:34:10.412Z,25.40
2023-04-21T03:36:38.741Z,25.13
2023-04-21T03:39:19.114Z,27.40
2023-04-21T03:41:48.844Z,27.07
2023-04-21T03:44:16.669Z,24.60
2023-04-21T03:46:47.025Z,27.10
2023-04-21T03:49:14.684Z,28.93
2023-04-21T03:51:42.370Z,26.80
2023-04-21T03:54:10.159Z,26.47
2023-04-21T03:56:38.040Z,27.00
2023-04-21T03:59:07.200Z,27.73
2023-04-21T04:01:35.273Z,23.43
2023-04-21T04:04:03.300Z,24.53
2023-04-21T04:06:32.561Z,23.63
2023-04-21T04:09:02.686Z,25.17
2023-04-21T04:11:30.485Z,26.40
2023-04-21T04:13:58.294Z,25.73
2023-04-21T04:16:28.911Z,23.70
2023-04-21T04:18:57.000Z,23.50
2023-04-21T04:21:24.752Z,25.40
2023-04-21T04:23:53.293Z,26.57
2023-04-21T04:26:22.524Z,24.23
2023-04-21T04:28:50.641Z,22.93
2023-04-21T04:31:18.339Z,24.47
2023-04-21T04:33:47.533Z,22.40
2023-04-21T04:36:15.260Z,24.67
2023-04-21T04:38:42.984Z,27.53
2023-04-21T04:41:12.709Z,23.10
2023-04-21T04:43:40.487Z,22.93
2023-04-21T04:46:09.043Z,23.23
2023-04-21T04:48:36.989Z,28.93
2023-04-21T04:51:06.307Z,24.23
2023-04-21T04:53:34.143Z,25.57
2023-04-21T04:56:02.123Z,27.57
2023-04-21T04:58:30.426Z,27.83
2023-04-21T05:00:58.416Z,27.13
2023-04-21T05:03:26.924Z,23.97
2023-04-21T05:05:55.127Z,23.70
2023-04-21T05:08:25.491Z,28.03
2023-04-21T05:10:53.603Z,24.27
2023-04-21T05:13:21.539Z,26.77
2023-04-21T05:15:49.545Z,23.63
2023-04-21T05:18:18.629Z,25.63
2023-04-21T05:20:46.832Z,29.20
2023-04-21T05:23:15.545Z,25.87
2023-04-21T05:25:46.131Z,25.43
2023-04-21T05:28:15.050Z,23.30
2023-04-21T05:30:43.382Z,26.80
2023-04-21T05:33:11.763Z,28.13
2023-04-21T05:35:39.929Z,23.10
2023-04-21T05:38:07.843Z,25.60
2023-04-21T05:40:35.955Z,27.20
2023-04-21T05:43:05.099Z,22.03
2023-04-21T05:45:32.745Z,24.57
2023-04-21T05:48:00.659Z,25.43
2023-04-21T05:50:33.985Z,23.67
2023-04-21T05:53:02.008Z,23.13
2023-04-21T05:55:29.738Z,23.77
2023-04-21T05:57:57.720Z,21.50
2023-04-21T06:00:27.088Z,22.50
2023-04-21T06:02:54.975Z,21.97
2023-04-21T06:05:23.102Z,26.30
2023-04-21T06:07:51.131Z,22.90
2023-04-21T06:10:19.527Z,24.10
2023-04-21T06:12:47.936Z,25.23
2023-04-21T06:15:16.422Z,23.40
2023-04-21T06:17:45.836Z,22.57
2023-04-21T06:20:14.633Z,22.70
2023-04-21T06:22:42.481Z,25.10
2023-04-21T06:25:10.801Z,22.37
2023-04-21T06:27:38.633Z,18.77
2023-04-21T06:30:08.246Z,19.07
2023-04-21T06:32:36.234Z,22.07
2023-04-21T06:35:05.990Z,19.03
2023-04-21T06:37:33.747Z,21.17
2023-04-21T06:40:01.552Z,22.23
2023-04-21T06:42:29.358Z,23.13
2023-04-21T06:44:57.154Z,19.50
2023-04-21T06:47:25.057Z,20.17
2023-04-21T06:49:54.291Z,19.17
2023-04-21T06:52:23.591Z,15.80
2023-04-21T06:54:51.211Z,16.63
2023-04-21T06:57:19.318Z,13.82
2023-04-21T06:59:49.311Z,11.40
2023-04-21T07:02:17.203Z,13.00
2023-04-21T07:04:45.094Z,13.68
2023-04-21T07:07:14.307Z,12.07
2023-04-21T07:09:47.319Z,12.80
2023-04-21T07:12:15.205Z,14.65
2023-04-21T07:14:43.022Z,12.15
2023-04-21T07:17:11.115Z,12.93
2023-04-21T07:19:39.552Z,11.77
2023-04-21T07:22:07.510Z,10.95
2023-04-21T07:24:37.302Z,11.98
2023-04-21T07:27:06.610Z,10.60
2023-04-21T07:29:34.440Z,12.05
2023-04-21T07:32:02.474Z,10.43
2023-04-21T07:34:30.245Z,11.32
2023-04-21T07:36:58.080Z,10.95
2023-04-21T07:39:25.704Z,9.50
2023-04-21T07:41:53.966Z,12.52
2023-04-21T07:44:23.265Z,9.75
2023-04-21T07:46:51.212Z,9.10
2023-04-21T07:49:19.227Z,10.25
2023-04-21T07:51:48.505Z,9.73
2023-04-21T07:54:16.255Z,10.48
2023-04-21T07:56:44.648Z,9.55
2023-04-21T07:59:12.288Z,9.70
2023-04-21T08:01:41.316Z,10.27
2023-04-21T08:04:09.675Z,7.60
2023-04-21T08:06:37.831Z,9.05
2023-04-21T08:09:05.828Z,7.47
2023-04-21T08:11:33.855Z,7.15
2023-04-21T08:14:01.596Z,7.05
2023-04-21T08:16:31.101Z,6.47
2023-04-21T08:19:02.651Z,6.55
2023-04-21T08:21:32.029Z,7.18
2023-04-21T08:23:59.875Z,5.82
2023-04-21T08:26:30.433Z,6.07
2023-04-21T08:29:00.714Z,6.47
2023-04-21T08:31:31.405Z,5.57
2023-04-21T08:34:03.054Z,5.60
2023-04-21T08:36:32.147Z,5.40
2023-04-21T08:39:00.495Z,5.95
2023-04-21T08:41:28.678Z,5.28
2023-04-21T08:43:56.583Z,6.00
2023-04-21T08:46:26.093Z,5.55
2023-04-21T08:48:55.486Z,6.82
2023-04-21T08:51:27.508Z,5.63
2023-04-21T08:53:56.687Z,5.40
2023-04-21T08:56:25.676Z,6.03
2023-04-21T08:58:53.416Z,5.50
2023-04-21T09:01:21.315Z,4.72
2023-04-21T09:03:50.637Z,4.55
2023-04-21T09:06:19.830Z,4.95
2023-04-21T09:08:56.618Z,6.07
2023-04-21T09:11:24.567Z,5.75
2023-04-21T09:13:53.062Z,5.53
2023-04-21T09:16:22.968Z,5.10
2023-04-21T09:18:51.829Z,4.85
2023-04-21T09:21:23.260Z,4.38
2023-04-21T09:23:53.551Z,5.28
2023-04-21T09:26:24.111Z,6.55
2023-04-21T09:28:53.947Z,3.75
2023-04-21T09:31:25.468Z,4.78
2023-04-21T09:33:58.736Z,3.88
2023-04-21T09:36:29.163Z,4.13
2023-04-21T09:41:34.431Z,4.38
2023-04-21T09:44:05.056Z,3.83
2023-04-21T09:46:35.384Z,5.47
2023-04-21T09:49:04.503Z,3.60
2023-04-21T09:52:02.150Z,3.47
2023-04-21T09:54:29.823Z,4.03
2023-04-21T09:57:02.127Z,3.55
2023-04-21T09:59:33.416Z,3.88
2023-04-21T10:02:02.438Z,4.15
2023-04-21T10:04:33.212Z,4.45
2023-04-21T10:07:02.105Z,3.60
2023-04-21T10:09:37.406Z,6.47
2023-04-21T10:12:09.376Z,4.22
2023-04-21T10:14:37.601Z,5.03
2023-04-21T10:17:07.567Z,3.50
2023-04-21T10:19:40.137Z,3.08
2023-04-21T10:22:09.563Z,4.22
2023-04-21T10:24:41.882Z,3.25
2023-04-21T10:27:13.098Z,3.00
2023-04-21T10:29:55.417Z,2.65
2023-04-21T10:32:40.164Z,3.10
2023-04-21T10:35:13.045Z,4.15
2023-04-21T10:37:42.858Z,2.40
2023-04-21T10:40:43.654Z,2.92
2023-04-21T10:43:45.916Z,2.80
2023-04-21T10:46:36.973Z,5.72
2023-04-21T10:49:09.470Z,2.20
2023-04-21T10:52:05.520Z,7.43
2023-04-21T10:54:41.672Z,2.80
2023-04-21T10:57:12.712Z,3.40
2023-04-21T10:59:56.443Z,2.65
2023-04-21T11:02:24.524Z,2.05
2023-04-21T11:04:53.382Z,3.08
2023-04-21T11:07:23.035Z,3.00
2023-04-21T11:09:59.797Z,2.47
2023-04-21T11:12:34.564Z,2.55
2023-04-21T11:15:12.678Z,2.17
2023-04-21T11:17:44.205Z,5.70
2023-04-21T11:20:12.239Z,2.70
2023-04-21T11:22:39.965Z,4.70
2023-04-21T11:25:18.895Z,2.88
2023-04-21T11:27:56.295Z,2.55
2023-04-21T11:30:34.023Z,2.03
2023-04-21T11:33:02.052Z,3.08
2023-04-21T11:35:29.858Z,3.08
2023-04-21T11:38:00.402Z,2.63
2023-04-21T11:40:28.276Z,2.25
2023-04-21T11:42:56.433Z,2.40
2023-04-21T11:45:25.630Z,2.65
2023-04-21T11:48:15.951Z,2.72
2023-04-21T11:50:48.540Z,3.00
2023-04-21T11:53:16.864Z,4.32
2023-04-21T11:55:45.134Z,2.67
2023-04-21T11:58:16.289Z,2.80
2023-04-21T12:00:47.860Z,2.95
2023-04-21T12:03:16.285Z,2.88
2023-04-21T12:05:44.583Z,2.78
2023-04-21T12:08:16.304Z,2.92
2023-04-21T12:10:49.664Z,3.38
2023-04-21T12:13:23.433Z,2.08
2023-04-21T12:15:55.011Z,1.70
2023-04-21T12:18:22.807Z,2.13
2023-04-21T12:20:53.024Z,1.70
2023-04-21T12:23:20.861Z,3.22
2023-04-21T12:25:48.846Z,1.60
2023-04-21T12:28:17.264Z,3.10
2023-04-21T12:30:47.479Z,2.35
2023-04-21T12:33:16.664Z,1.70
2023-04-21T12:35:44.762Z,1.63
2023-04-21T12:38:13.841Z,1.50
2023-04-21T12:40:41.509Z,1.55
2023-04-21T12:43:09.338Z,1.50
2023-04-21T12:45:38.520Z,2.42
2023-04-21T12:48:06.710Z,1.30
2023-04-21T12:50:36.105Z,2.28
2023-04-21T12:53:04.080Z,1.35
2023-04-21T12:55:31.875Z,1.40
2023-04-21T12:58:01.148Z,1.10
2023-04-21T13:00:29.584Z,1.67
2023-04-21T13:02:58.494Z,1.35
2023-04-21T13:05:28.180Z,1.17
2023-04-21T13:07:57.296Z,1.20
2023-04-21T13:10:25.326Z,1.10
2023-04-21T13:12:53.546Z,2.55
2023-04-21T13:15:21.596Z,2.28
2023-04-21T13:17:50.021Z,1.10
2023-04-21T13:20:20.704Z,1.65
2023-04-21T13:22:48.506Z,2.03
2023-04-21T13:25:19.512Z,1.50
2023-04-21T13:27:50.440Z,1.33
2023-04-21T13:30:19.432Z,1.65
2023-04-21T13:32:47.210Z,2.95
2023-04-21T13:35:15.065Z,2.42
2023-04-21T13:37:43.056Z,1.70
2023-04-21T13:40:12.141Z,1.50
2023-04-21T13:42:41.773Z,2.05
2023-04-21T13:45:10.761Z,1.35
2023-04-21T13:47:38.706Z,2.38
2023-04-21T13:50:07.499Z,1.40
2023-04-21T13:52:36.719Z,1.20
2023-04-21T13:55:05.284Z,1.30
2023-04-21T13:57:33.231Z,2.28
2023-04-21T14:00:03.221Z,4.10
2023-04-21T14:02:31.108Z,2.25
2023-04-21T14:04:59.206Z,1.27
2023-04-21T14:07:27.482Z,1.30
2023-04-21T14:09:55.661Z,0.93
2023-04-21T14:12:24.261Z,1.08
2023-04-21T14:14:53.019Z,1.30
2023-04-21T14:17:23.233Z,2.03
2023-04-21T14:19:55.356Z,1.95
2023-04-21T14:22:23.475Z,1.30
2023-04-21T14:24:51.665Z,1.17
2023-04-21T14:27:19.418Z,9.68
2023-04-21T14:29:47.096Z,0.90
2023-04-21T14:32:14.913Z,3.63
2023-04-21T14:34:44.062Z,2.78
2023-04-21T14:37:12.832Z,1.30
2023-04-21T14:39:40.684Z,2.47
2023-04-21T14:42:08.381Z,0.80
2023-04-21T14:44:36.490Z,0.75
2023-04-21T14:47:09.925Z,0.73
2023-04-21T14:49:39.036Z,1.98
2023-04-21T14:52:08.436Z,0.70
2023-04-21T14:54:36.212Z,2.65
2023-04-21T14:57:19.035Z,0.80
2023-04-21T14:59:49.379Z,0.95
2023-04-21T15:02:17.413Z,2.42
2023-04-21T15:04:45.731Z,0.75
2023-04-21T15:07:17.930Z,0.73
2023-04-21T15:09:51.019Z,0.68
2023-04-21T15:12:19.074Z,1.00
2023-04-21T15:14:47.030Z,2.40
2023-04-21T15:17:14.811Z,1.05
2023-04-21T15:19:42.618Z,1.25
2023-04-21T15:22:12.137Z,0.80
2023-04-21T15:24:41.236Z,0.80
2023-04-21T15:27:08.976Z,1.08
2023-04-21T15:29:42.190Z,0.82
2023-04-21T15:32:10.231Z,0.68
2023-04-21T15:34:38.185Z,0.93
2023-04-21T15:37:05.905Z,2.25
2023-04-21T15:39:33.782Z,1.38
2023-04-21T15:42:05.084Z,0.85
2023-04-21T15:44:34.013Z,1.27
2023-04-21T15:47:02.164Z,1.63
2023-04-21T15:49:29.941Z,1.00
2023-04-21T15:51:57.940Z,2.85
2023-04-21T15:54:25.624Z,0.93
2023-04-21T15:56:53.668Z,0.70
2023-04-21T15:59:25.112Z,1.58
2023-04-21T16:01:54.177Z,1.10
2023-04-21T16:04:22.031Z,0.70
2023-04-21T16:06:50.104Z,1.35
2023-04-21T16:09:18.206Z,1.98
2023-04-21T16:11:46.120Z,0.70
2023-04-21T16:14:16.800Z,3.22
2023-04-21T16:16:46.231Z,0.60
2023-04-21T16:19:14.133Z,0.90
2023-04-21T16:21:42.367Z,0.70
2023-04-21T16:24:10.883Z,2.78
2023-04-21T16:26:38.653Z,0.60
2023-04-21T16:29:06.437Z,0.70
2023-04-21T16:31:34.209Z,1.25
2023-04-21T16:34:29.742Z,0.65
2023-04-21T16:36:57.404Z,0.82
2023-04-21T16:39:25.104Z,1.02
2023-04-21T16:41:52.836Z,1.10
2023-04-21T16:44:21.068Z,2.00
2023-04-21T16:46:49.016Z,3.50
2023-04-21T16:49:17.365Z,1.00
2023-04-21T16:51:46.809Z,0.98
2023-04-21T16:54:14.892Z,0.80
2023-04-21T16:56:43.639Z,0.80
2023-04-21T16:59:11.716Z,1.20
2023-04-21T17:01:40.017Z,0.82
2023-04-21T17:04:08.017Z,1.10
2023-04-21T17:06:38.033Z,0.80
2023-04-21T17:09:08.138Z,0.80
2023-04-21T17:11:38.848Z,0.80
2023-04-21T17:14:07.849Z,1.38
2023-04-21T17:16:35.817Z,1.23
2023-04-21T17:19:06.854Z,0.93
2023-04-21T17:21:34.664Z,1.15
2023-04-21T17:24:02.454Z,0.77
2023-04-21T17:26:31.664Z,0.85
2023-04-21T17:29:00.048Z,1.15
2023-04-21T17:31:29.413Z,0.80
2023-04-21T17:33:58.131Z,0.80
2023-04-21T17:36:27.521Z,0.80
2023-04-21T17:38:57.231Z,0.90
2023-04-21T17:41:27.694Z,1.15
2023-04-21T17:43:56.882Z,0.80
2023-04-21T17:46:26.416Z,1.10
2023-04-21T17:48:54.849Z,2.60
2023-04-21T17:51:23.217Z,1.90
2023-04-21T17:53:51.063Z,1.48
2023-04-21T17:56:18.968Z,2.67
2023-04-21T17:58:49.130Z,1.85
2023-04-21T18:01:18.344Z,3.25
2023-04-21T18:03:46.836Z,1.38
2023-04-21T18:06:17.074Z,1.30
2023-04-21T18:08:44.890Z,1.02
2023-04-21T18:11:13.189Z,3.35
2023-04-21T18:13:42.232Z,1.30
2023-04-21T18:16:09.980Z,2.50
2023-04-21T18:18:41.148Z,2.38
2023-04-21T18:21:08.982Z,1.10
2023-04-21T18:23:36.719Z,2.20
2023-04-21T18:26:05.116Z,2.08
2023-04-21T18:28:33.324Z,1.92
2023-04-21T18:31:01.331Z,2.65
2023-04-21T18:33:30.545Z,3.80
2023-04-21T18:35:59.591Z,2.30
2023-04-21T18:38:27.485Z,2.95
2023-04-21T18:40:56.359Z,1.65
2023-04-21T18:43:24.408Z,2.30
2023-04-21T18:45:52.850Z,2.00
2023-04-21T18:48:23.601Z,2.55
2023-04-21T18:50:51.270Z,2.80
2023-04-21T18:53:20.560Z,2.20
2023-04-21T18:55:48.399Z,3.78
2023-04-21T18:58:17.650Z,2.40
2023-04-21T19:00:45.560Z,3.97
2023-04-21T19:03:13.807Z,2.30
2023-04-21T19:05:42.996Z,2.57
2023-04-21T19:08:11.365Z,2.53
2023-04-21T19:10:40.575Z,4.90
2023-04-21T19:13:08.804Z,3.08
2023-04-21T19:15:36.732Z,2.10
2023-04-21T19:18:05.558Z,2.33
2023-04-21T19:20:35.554Z,2.30
2023-04-21T19:23:04.327Z,2.23
2023-04-21T19:25:33.379Z,2.73
2023-04-21T19:28:04.481Z,1.47
2023-04-21T19:30:34.991Z,1.87
2023-04-21T19:33:05.320Z,2.87
2023-04-21T19:35:35.914Z,1.90
2023-04-21T19:38:05.862Z,2.10
2023-04-21T19:40:34.356Z,3.97
2023-04-21T19:43:04.790Z,2.87
2023-04-21T19:45:34.374Z,2.90
2023-04-21T19:48:05.188Z,3.10
2023-04-21T19:50:34.902Z,3.27
2023-04-21T19:53:05.745Z,4.63
2023-04-21T19:55:34.370Z,4.37
2023-04-21T19:58:05.188Z,2.67
2023-04-21T20:00:34.406Z,3.77
2023-04-21T20:03:04.455Z,2.43
2023-04-21T20:05:36.980Z,2.73
2023-04-21T20:08:05.983Z,2.03
2023-04-21T20:10:37.514Z,1.70
2023-04-21T20:13:06.909Z,2.50
2023-04-21T20:15:34.872Z,2.53
2023-04-21T20:18:04.335Z,2.90
2023-04-21T20:20:32.117Z,4.27
2023-04-21T20:23:00.852Z,3.70
2023-04-21T20:25:30.964Z,2.60
2023-04-21T20:27:58.819Z,2.63
2023-04-21T20:30:28.168Z,2.40
2023-04-21T20:32:56.192Z,2.60
2023-04-21T20:35:23.957Z,4.43
2023-04-21T20:37:53.457Z,4.20
2023-04-21T20:40:21.823Z,2.40
2023-04-21T20:42:52.052Z,3.23
2023-04-21T20:45:19.861Z,4.60
2023-04-21T20:47:49.138Z,5.13
2023-04-21T20:50:16.989Z,4.57
2023-04-21T20:52:44.761Z,4.47
2023-04-21T20:55:15.232Z,2.40
2023-04-21T20:57:44.182Z,4.07
2023-04-21T21:00:15.280Z,3.20
2023-04-21T21:02:44.164Z,3.97
2023-04-21T21:05:16.514Z,3.17
2023-04-21T21:07:47.172Z,3.53
2023-04-21T21:10:17.590Z,2.97
2023-04-21T21:12:46.514Z,3.87
2023-04-21T21:15:14.834Z,4.30
2023-04-21T21:17:42.955Z,3.23
2023-04-21T21:20:18.858Z,6.37
2023-04-21T21:22:54.655Z,3.00
2023-04-21T21:25:27.387Z,4.63
2023-04-21T21:27:58.223Z,5.10
2023-04-21T21:30:28.252Z,3.23
2023-04-21T21:32:58.264Z,4.07
2023-04-21T21:35:28.007Z,3.60
2023-04-21T21:37:56.009Z,2.73
2023-04-21T21:40:24.434Z,3.80
2023-04-21T21:42:54.532Z,2.97
2023-04-21T21:45:23.709Z,5.83
2023-04-21T21:47:51.643Z,3.40
2023-04-21T21:50:19.958Z,4.30
2023-04-21T21:52:49.612Z,7.50
2023-04-21T21:55:17.928Z,5.40
2023-04-21T21:57:45.877Z,6.07
2023-04-21T22:00:15.927Z,4.30
2023-04-21T22:02:48.727Z,2.97
2023-04-21T22:05:16.701Z,4.13
2023-04-21T22:07:46.224Z,4.07
2023-04-21T22:10:16.630Z,3.77
2023-04-21T22:12:46.587Z,5.10
2023-04-21T22:15:14.951Z,3.97
2023-04-21T22:17:45.654Z,4.90
2023-04-21T22:20:15.505Z,3.73
2023-04-21T22:22:43.605Z,4.97
2023-04-21T22:25:13.987Z,4.17
2023-04-21T22:27:45.439Z,4.93
2023-04-21T22:30:13.875Z,3.83
2023-04-21T22:32:46.098Z,4.13
2023-04-21T22:35:16.186Z,3.57
2023-04-21T22:37:48.841Z,4.40
2023-04-21T22:40:19.984Z,4.03
2023-04-21T22:42:49.749Z,4.50
2023-04-21T22:45:18.482Z,4.60
2023-04-21T22:47:49.614Z,3.77
2023-04-21T22:50:17.917Z,4.27
2023-04-21T22:52:46.608Z,5.17
2023-04-21T22:55:17.532Z,3.87
2023-04-21T22:57:45.591Z,4.50
2023-04-21T23:00:16.924Z,6.43
2023-04-21T23:02:45.114Z,5.87
2023-04-21T23:05:13.853Z,4.17
2023-04-21T23:07:42.621Z,3.77
2023-04-21T23:10:12.611Z,4.83
2023-04-21T23:12:41.991Z,4.07
2023-04-21T23:15:11.069Z,4.70
2023-04-21T23:17:45.594Z,4.23
2023-04-21T23:20:17.546Z,6.30
2023-04-21T23:22:50.987Z,3.47
2023-04-21T23:25:21.794Z,6.77
2023-04-21T23:27:50.354Z,4.20
2023-04-21T23:30:19.689Z,4.60
2023-04-21T23:32:50.324Z,4.83
2023-04-21T23:35:20.157Z,6.33
2023-04-21T23:37:50.896Z,4.17
2023-04-21T23:40:20.758Z,4.87
2023-04-21T23:42:49.075Z,5.17
2023-04-21T23:45:18.985Z,5.13
2023-04-21T23:47:48.879Z,4.60
2023-04-21T23:50:17.198Z,6.30
2023-04-21T23:52:46.573Z,4.10
2023-04-21T23:55:14.848Z,6.90
2023-04-21T23:57:46.936Z,4.53
